Portada
METAR-TAF:

METAR-TAF

Aeroports :

Illa Christmas, Austràlia

latitud: 10-26S, longitud: 105-41E, altitud: 279 m

Observació

L'informe es va fer fa 25 minuts, a les 21:30 UTC
Vent 7 kt del Sud-Est
Temperatura 25°C
Humitat 79%
Pressió 1011 hPa
Visibilitat 10 km o més
Núvols disperses a una alçada de 1700 ft
Núvols disperses a una alçada de 2700 ft

METAR: YPXM 112130Z AUTO 13007KT 9999 // SCT017 SCT027 25/21 Q1011

Hora: 04:55 (21:55 UTC)

Pronòstic

L'informe es va fer fa 4 hores i 53 minuts, a les 17:02 UTC
Pronòstic vàlid del 11 a les 18 UTC al 12 a les 18 UTC
Vent 12 kt del Sud-Est
Visibilitat 10 km o més
Núvols disperses a una alçada de 1500 ft
Cel ennuvolat a una alçada de 2000 ft

TAF: YPXM 111702Z 1118/1218 13012KT 9999 SCT015 BKN020

Observacions i pronòstics meteorològics de més de 4000 aeroports (METAR i TAF).

Les estacions disponibles són els punts grocs i vermells al mapa.

Posi el ratolí al punt desitjat per veure el nom de l'estació.

Feu clic per veure les observacions i els pronòstics meteorològics.

Per canviar el mapa: feu clic els botons verds amb una creu de color negre per apropar; al botó verd amb un guió per allunyar la imatge; o en les fletxes verdes per a mapes adjacents.


METAR-TAF: